createdAt,value
2023-02-28T00:01:15.467Z,12.37
2023-02-28T00:03:43.623Z,12.17
2023-02-28T00:06:12.381Z,13.50
2023-02-28T00:08:42.198Z,14.43
2023-02-28T00:11:13.479Z,13.03
2023-02-28T00:13:44.803Z,11.63
2023-02-28T00:16:15.924Z,11.53
2023-02-28T00:18:44.412Z,14.37
2023-02-28T00:21:12.812Z,14.37
2023-02-28T00:23:42.204Z,18.60
2023-02-28T00:26:10.524Z,16.63
2023-02-28T00:28:38.912Z,15.27
2023-02-28T00:31:07.597Z,17.57
2023-02-28T00:33:36.014Z,18.07
2023-02-28T00:36:07.033Z,15.43
2023-02-28T00:38:35.463Z,13.13
2023-02-28T00:41:06.012Z,12.33
2023-02-28T00:43:35.100Z,10.37
2023-02-28T00:46:03.577Z,11.83
2023-02-28T00:48:31.960Z,16.63
2023-02-28T00:51:00.584Z,12.27
2023-02-28T00:53:28.898Z,11.83
2023-02-28T00:55:57.251Z,10.03
2023-02-28T00:58:27.215Z,10.27
2023-02-28T01:00:56.013Z,9.33
2023-02-28T01:03:24.635Z,8.63
2023-02-28T01:05:54.239Z,8.47
2023-02-28T01:08:22.810Z,9.77
2023-02-28T01:10:51.365Z,8.90
2023-02-28T01:13:19.729Z,9.43
2023-02-28T01:15:53.730Z,9.97
2023-02-28T01:18:22.247Z,9.60
2023-02-28T01:20:52.788Z,9.87
2023-02-28T01:23:22.743Z,9.30
2023-02-28T01:25:51.090Z,9.50
2023-02-28T01:28:19.117Z,9.37
2023-02-28T01:30:52.559Z,9.73
2023-02-28T01:33:21.089Z,9.60
2023-02-28T01:35:49.524Z,11.00
2023-02-28T01:38:22.854Z,9.33
2023-02-28T01:40:51.714Z,10.40
2023-02-28T01:43:25.317Z,9.60
2023-02-28T01:45:55.467Z,9.97
2023-02-28T01:48:27.321Z,9.77
2023-02-28T01:50:57.199Z,9.17
2023-02-28T01:53:31.498Z,8.63
2023-02-28T01:56:00.111Z,10.03
2023-02-28T01:58:28.486Z,9.70
2023-02-28T02:00:58.409Z,9.77
2023-02-28T02:03:26.742Z,8.97
2023-02-28T02:05:55.069Z,10.17
2023-02-28T02:08:25.818Z,9.40
2023-02-28T02:10:56.646Z,10.90
2023-02-28T02:13:50.703Z,10.03
2023-02-28T02:16:30.708Z,9.87
2023-02-28T02:19:11.378Z,9.80
2023-02-28T02:22:09.510Z,9.10
2023-02-28T02:25:09.122Z,9.70
2023-02-28T02:28:06.840Z,8.73
2023-02-28T02:31:01.958Z,8.57
2023-02-28T02:34:25.925Z,9.50
2023-02-28T02:37:04.129Z,10.73
2023-02-28T02:39:38.876Z,9.57
2023-02-28T02:42:16.050Z,10.50
2023-02-28T02:44:48.920Z,9.33
2023-02-28T02:47:19.511Z,10.13
2023-02-28T02:49:52.581Z,9.53
2023-02-28T02:52:27.290Z,9.40
2023-02-28T02:54:58.710Z,10.03
2023-02-28T02:57:32.902Z,10.33
2023-02-28T03:00:02.608Z,10.73
2023-02-28T03:02:35.170Z,11.20
2023-02-28T03:05:08.320Z,10.27
2023-02-28T03:07:37.701Z,10.10
2023-02-28T03:10:21.049Z,12.00
2023-02-28T03:13:08.104Z,10.87
2023-02-28T03:15:47.411Z,11.10
2023-02-28T03:18:20.886Z,10.10
2023-02-28T03:20:58.167Z,11.23
2023-02-28T03:23:34.268Z,10.20
2023-02-28T03:26:08.202Z,11.43
2023-02-28T03:28:42.942Z,10.80
2023-02-28T03:31:18.382Z,11.23
2023-02-28T03:33:55.920Z,11.23
2023-02-28T03:36:28.057Z,12.13
2023-02-28T03:39:03.544Z,12.80
2023-02-28T03:41:37.214Z,9.53
2023-02-28T03:44:09.300Z,10.67
2023-02-28T03:46:40.604Z,9.83
2023-02-28T03:49:16.289Z,10.13
2023-02-28T03:51:45.048Z,9.03
2023-02-28T03:54:20.276Z,10.77
2023-02-28T03:56:54.017Z,9.13
2023-02-28T03:59:28.262Z,9.90
2023-02-28T04:01:59.331Z,9.80
2023-02-28T04:04:27.930Z,10.97
2023-02-28T04:07:04.057Z,10.30
2023-02-28T04:09:33.867Z,10.73
2023-02-28T04:12:02.332Z,10.60
2023-02-28T04:14:31.853Z,12.67
2023-02-28T04:16:59.983Z,12.27
2023-02-28T04:19:27.957Z,11.27
2023-02-28T04:21:56.175Z,12.20
2023-02-28T04:24:25.815Z,10.97
2023-02-28T04:26:57.362Z,10.67
2023-02-28T04:29:27.387Z,11.97
2023-02-28T04:31:55.938Z,13.17
2023-02-28T04:34:24.649Z,12.73
2023-02-28T04:37:11.540Z,13.53
2023-02-28T04:39:40.433Z,12.53
2023-02-28T04:42:09.926Z,13.60
2023-02-28T04:44:38.024Z,12.70
2023-02-28T04:47:06.283Z,12.40
2023-02-28T04:49:34.362Z,12.17
2023-02-28T04:52:02.931Z,13.27
2023-02-28T04:54:31.238Z,15.13
2023-02-28T04:56:59.223Z,13.53
2023-02-28T04:59:28.621Z,12.33
2023-02-28T05:01:56.599Z,13.07
2023-02-28T05:04:25.017Z,11.70
2023-02-28T05:06:52.988Z,12.63
2023-02-28T05:09:21.322Z,12.63
2023-02-28T05:11:49.649Z,12.03
2023-02-28T05:14:17.925Z,11.10
2023-02-28T05:16:47.421Z,11.63
2023-02-28T05:19:16.136Z,11.87
2023-02-28T05:21:44.850Z,11.53
2023-02-28T05:24:14.073Z,11.87
2023-02-28T05:26:45.349Z,12.07
2023-02-28T05:29:13.700Z,12.50
2023-02-28T05:31:42.182Z,11.77
2023-02-28T05:34:13.564Z,11.47
2023-02-28T05:36:42.126Z,12.33
2023-02-28T05:39:13.532Z,12.03
2023-02-28T05:41:42.978Z,11.93
2023-02-28T05:44:11.781Z,11.50
2023-02-28T05:46:40.321Z,12.47
2023-02-28T05:49:08.682Z,12.47
2023-02-28T05:51:40.962Z,12.60
2023-02-28T05:54:09.853Z,12.63
2023-02-28T05:56:40.103Z,11.70
2023-02-28T05:59:08.488Z,11.77
2023-02-28T06:01:37.536Z,11.07
2023-02-28T06:04:08.848Z,12.33
2023-02-28T06:06:40.306Z,13.27
2023-02-28T06:09:08.514Z,13.23
2023-02-28T06:11:36.624Z,12.33
2023-02-28T06:14:05.694Z,12.97
2023-02-28T06:16:35.586Z,13.33
2023-02-28T06:19:05.589Z,13.60
2023-02-28T06:21:33.966Z,14.13
2023-02-28T06:24:03.937Z,15.40
2023-02-28T06:26:32.264Z,14.77
2023-02-28T06:29:01.739Z,15.13
2023-02-28T06:31:31.119Z,14.20
2023-02-28T06:33:59.250Z,14.57
2023-02-28T06:36:27.316Z,14.73
2023-02-28T06:38:56.531Z,14.23
2023-02-28T06:41:28.785Z,14.67
2023-02-28T06:43:57.189Z,14.73
2023-02-28T06:46:26.017Z,13.67
2023-02-28T06:48:54.034Z,16.10
2023-02-28T06:51:23.382Z,14.30
2023-02-28T06:53:51.537Z,14.20
2023-02-28T06:56:21.316Z,15.67
2023-02-28T06:58:53.803Z,14.23
2023-02-28T07:01:23.962Z,12.33
2023-02-28T07:03:53.277Z,13.13
2023-02-28T07:06:23.723Z,13.27
2023-02-28T07:08:52.814Z,12.13
2023-02-28T07:11:21.084Z,11.23
2023-02-28T07:13:50.530Z,13.57
2023-02-28T07:16:18.778Z,11.97
2023-02-28T07:18:46.842Z,11.40
2023-02-28T07:21:14.859Z,11.63
2023-02-28T07:23:43.611Z,13.07
2023-02-28T07:26:16.462Z,13.53
2023-02-28T07:28:44.890Z,13.17
2023-02-28T07:31:16.044Z,13.33
2023-02-28T07:33:44.803Z,14.20
2023-02-28T07:36:16.221Z,16.70
2023-02-28T07:38:47.798Z,17.50
2023-02-28T07:41:16.851Z,14.77
2023-02-28T07:43:45.662Z,14.93
2023-02-28T07:46:17.284Z,13.80
2023-02-28T07:48:46.468Z,13.40
2023-02-28T07:51:15.036Z,13.47
2023-02-28T07:53:43.329Z,12.63
2023-02-28T07:56:12.211Z,12.73
2023-02-28T07:58:40.438Z,13.53
2023-02-28T08:01:09.786Z,12.90
2023-02-28T08:03:39.720Z,13.00
2023-02-28T08:06:09.672Z,12.10
2023-02-28T08:08:37.783Z,13.00
2023-02-28T08:11:06.276Z,13.50
2023-02-28T08:13:34.370Z,14.03
2023-02-28T08:16:04.023Z,12.60
2023-02-28T08:18:32.166Z,13.90
2023-02-28T08:21:01.582Z,13.10
2023-02-28T08:23:29.721Z,12.53
2023-02-28T08:25:58.355Z,12.40
2023-02-28T08:28:27.519Z,11.77
2023-02-28T08:30:56.123Z,10.77
2023-02-28T08:33:24.856Z,11.07
2023-02-28T08:35:56.111Z,12.00
2023-02-28T08:38:25.865Z,11.17
2023-02-28T08:41:00.377Z,11.27
2023-02-28T08:43:29.688Z,11.40
2023-02-28T08:45:58.711Z,10.13
2023-02-28T08:48:27.151Z,9.67
2023-02-28T08:51:06.804Z,10.13
2023-02-28T08:53:37.696Z,8.33
2023-02-28T08:56:08.256Z,6.73
2023-02-28T08:58:36.598Z,6.53
2023-02-28T09:01:11.538Z,7.00
2023-02-28T09:03:39.831Z,6.93
2023-02-28T09:06:08.137Z,6.67
2023-02-28T09:08:37.773Z,5.43
2023-02-28T09:11:06.874Z,4.40
2023-02-28T09:13:35.281Z,5.37
2023-02-28T09:16:05.297Z,4.40
2023-02-28T09:18:33.369Z,5.27
2023-02-28T09:21:01.344Z,3.33
2023-02-28T09:23:29.434Z,2.87
2023-02-28T09:25:59.446Z,2.70
2023-02-28T09:28:27.682Z,2.97
2023-02-28T09:30:58.515Z,2.90
2023-02-28T09:33:27.200Z,2.40
2023-02-28T09:36:01.049Z,2.83
2023-02-28T09:38:29.842Z,3.80
2023-02-28T09:41:01.525Z,3.67
2023-02-28T09:43:35.363Z,3.57
2023-02-28T09:46:13.616Z,3.50
2023-02-28T09:48:46.306Z,3.10
2023-02-28T09:51:24.239Z,3.13
2023-02-28T09:53:56.697Z,3.00
2023-02-28T09:56:35.468Z,2.77
2023-02-28T09:59:07.815Z,3.10
2023-02-28T10:01:41.347Z,2.80
2023-02-28T10:04:18.392Z,3.13
2023-02-28T10:06:51.321Z,3.53
2023-02-28T10:09:24.635Z,3.40
2023-02-28T10:11:59.037Z,3.50
2023-02-28T10:14:30.854Z,3.10
2023-02-28T10:17:01.373Z,2.70
2023-02-28T10:19:35.383Z,3.30
2023-02-28T10:22:08.965Z,3.10
2023-02-28T10:24:43.013Z,3.10
2023-02-28T10:27:17.219Z,3.17
2023-02-28T10:29:46.771Z,3.40
2023-02-28T10:32:18.015Z,3.27
2023-02-28T10:34:46.952Z,2.50
2023-02-28T10:37:16.904Z,2.80
2023-02-28T10:39:46.673Z,3.00
2023-02-28T10:42:27.682Z,2.97
2023-02-28T10:45:13.639Z,2.67
2023-02-28T10:47:56.381Z,2.73
2023-02-28T10:50:37.683Z,3.20
2023-02-28T10:53:26.799Z,2.70
2023-02-28T10:56:03.312Z,2.93
2023-02-28T10:58:44.177Z,2.73
2023-02-28T11:01:17.314Z,2.93
2023-02-28T11:03:45.745Z,3.03
2023-02-28T11:06:19.452Z,2.90
2023-02-28T11:08:53.807Z,2.90
2023-02-28T11:11:24.719Z,2.90
2023-02-28T11:13:57.967Z,2.60
2023-02-28T11:16:36.028Z,3.60
2023-02-28T11:19:05.566Z,2.63
2023-02-28T11:21:35.844Z,3.17
2023-02-28T11:24:14.582Z,3.17
2023-02-28T11:26:45.334Z,3.30
2023-02-28T11:29:23.745Z,3.20
2023-02-28T11:32:14.886Z,3.17
2023-02-28T11:34:43.894Z,2.83
2023-02-28T11:37:15.537Z,3.13
2023-02-28T11:39:44.031Z,2.80
2023-02-28T11:42:34.721Z,3.03
2023-02-28T11:45:18.969Z,3.13
2023-02-28T11:47:52.231Z,3.10
2023-02-28T11:50:48.283Z,3.20
2023-02-28T11:53:29.422Z,3.23
2023-02-28T11:56:03.993Z,3.03
2023-02-28T11:58:41.648Z,3.07
2023-02-28T12:01:23.804Z,3.57
2023-02-28T12:04:05.356Z,3.10
2023-02-28T12:06:41.175Z,2.77
2023-02-28T12:09:31.845Z,2.80
2023-02-28T12:12:04.920Z,3.07
2023-02-28T12:14:51.940Z,3.17
2023-02-28T12:17:32.520Z,3.23
2023-02-28T12:20:11.678Z,3.07
2023-02-28T12:22:45.774Z,2.90
2023-02-28T12:25:46.002Z,3.07
2023-02-28T12:28:16.950Z,2.77
2023-02-28T12:30:53.065Z,3.33
2023-02-28T12:33:27.031Z,3.00
2023-02-28T12:35:58.163Z,3.00
2023-02-28T12:38:30.021Z,3.30
2023-02-28T12:41:03.086Z,2.77
2023-02-28T12:43:35.414Z,3.63
2023-02-28T12:46:10.141Z,3.10
2023-02-28T12:48:44.579Z,3.37
2023-02-28T12:51:14.751Z,3.40
2023-02-28T12:53:54.864Z,3.20
2023-02-28T12:56:33.680Z,3.27
2023-02-28T12:59:06.316Z,3.37
2023-02-28T13:01:56.680Z,3.00
2023-02-28T13:05:00.057Z,3.03
2023-02-28T13:07:54.310Z,3.40
2023-02-28T13:10:22.606Z,2.77
2023-02-28T13:12:53.826Z,3.27
2023-02-28T13:15:26.584Z,2.77
2023-02-28T13:17:56.956Z,3.27
2023-02-28T13:20:28.783Z,2.93
2023-02-28T13:22:58.890Z,3.30
2023-02-28T13:25:58.049Z,3.60
2023-02-28T13:29:09.283Z,3.73
2023-02-28T13:32:14.861Z,3.13
2023-02-28T13:34:49.497Z,3.30
2023-02-28T13:37:38.544Z,3.20
2023-02-28T13:40:30.806Z,3.10
2023-02-28T13:42:59.180Z,3.53
2023-02-28T13:45:38.108Z,3.77
2023-02-28T13:48:07.380Z,3.40
2023-02-28T13:50:39.105Z,3.50
2023-02-28T13:53:54.982Z,4.87
2023-02-28T13:56:41.337Z,4.63
2023-02-28T13:59:25.977Z,3.50
2023-02-28T14:02:31.822Z,3.90
2023-02-28T14:05:04.792Z,2.87
2023-02-28T14:07:39.716Z,3.27
2023-02-28T14:10:09.981Z,3.50
2023-02-28T14:13:04.353Z,4.33
2023-02-28T14:15:57.834Z,3.20
2023-02-28T14:18:32.483Z,4.63
2023-02-28T14:21:05.797Z,4.40
2023-02-28T14:24:22.385Z,3.90
2023-02-28T14:27:11.533Z,3.33
2023-02-28T14:30:09.966Z,3.47
2023-02-28T14:32:46.086Z,3.13
2023-02-28T14:35:26.352Z,3.30
2023-02-28T14:37:55.820Z,2.87
2023-02-28T14:40:29.879Z,5.07
2023-02-28T14:43:00.728Z,4.40
2023-02-28T14:45:32.779Z,4.30
2023-02-28T14:48:02.720Z,3.47
2023-02-28T14:50:33.824Z,3.47
2023-02-28T14:53:02.043Z,3.30
2023-02-28T14:55:32.922Z,3.33
2023-02-28T14:58:03.932Z,3.23
2023-02-28T15:00:34.438Z,3.40
2023-02-28T15:03:19.187Z,5.27
2023-02-28T15:05:54.694Z,5.47
2023-02-28T15:08:23.245Z,3.30
2023-02-28T15:10:56.816Z,2.70
2023-02-28T15:13:28.687Z,2.80
2023-02-28T15:16:03.261Z,3.47
2023-02-28T15:18:39.557Z,4.27
2023-02-28T15:21:10.227Z,3.40
2023-02-28T15:23:39.564Z,3.40
2023-02-28T15:26:08.126Z,4.63
2023-02-28T15:28:36.488Z,3.57
2023-02-28T15:31:22.191Z,4.03
2023-02-28T15:33:55.509Z,3.57
2023-02-28T15:36:28.843Z,3.87
2023-02-28T15:39:01.572Z,3.60
2023-02-28T15:41:40.037Z,4.17
2023-02-28T15:44:19.813Z,3.50
2023-02-28T15:47:03.652Z,3.90
2023-02-28T15:49:45.061Z,4.37
2023-02-28T15:52:17.755Z,7.10
2023-02-28T15:54:47.528Z,6.47
2023-02-28T15:57:19.995Z,5.23
2023-02-28T15:59:53.985Z,7.20
2023-02-28T16:02:32.921Z,8.13
2023-02-28T16:05:04.846Z,9.23
2023-02-28T16:07:32.927Z,6.17
2023-02-28T16:10:01.561Z,5.13
2023-02-28T16:12:32.334Z,8.40
2023-02-28T16:15:03.835Z,17.10
2023-02-28T16:17:36.848Z,41.57
2023-02-28T16:20:14.675Z,34.40
2023-02-28T16:22:43.819Z,28.83
2023-02-28T16:25:14.815Z,26.30
2023-02-28T16:27:43.816Z,7.30
2023-02-28T16:30:19.774Z,6.83
2023-02-28T16:32:49.758Z,6.10
2023-02-28T16:35:18.995Z,14.47
2023-02-28T16:37:47.633Z,10.63
2023-02-28T16:40:21.905Z,7.23
2023-02-28T16:42:52.466Z,6.70
2023-02-28T16:45:23.928Z,22.40
2023-02-28T16:47:53.825Z,23.00
2023-02-28T16:50:24.281Z,23.83
2023-02-28T16:52:55.523Z,25.97
2023-02-28T16:55:24.178Z,29.87
2023-02-28T16:57:55.201Z,50.07
2023-02-28T17:00:24.399Z,39.77
2023-02-28T17:02:54.193Z,20.97
2023-02-28T17:05:23.090Z,24.97
2023-02-28T17:07:52.075Z,18.80
2023-02-28T17:10:22.597Z,20.83
2023-02-28T17:12:51.184Z,18.30
2023-02-28T17:15:21.248Z,17.10
2023-02-28T17:17:50.974Z,17.30
2023-02-28T17:20:23.548Z,14.40
2023-02-28T17:22:52.068Z,11.97
2023-02-28T17:25:20.739Z,15.03
2023-02-28T17:27:49.260Z,13.47
2023-02-28T17:30:20.589Z,11.40
2023-02-28T17:32:48.752Z,13.20
2023-02-28T17:35:17.183Z,22.47
2023-02-28T17:37:47.133Z,22.30
2023-02-28T17:40:17.107Z,16.90
2023-02-28T17:42:45.309Z,10.17
2023-02-28T17:45:14.133Z,10.00
2023-02-28T17:47:43.906Z,9.77
2023-02-28T17:50:15.955Z,12.27
2023-02-28T17:52:44.140Z,9.83
2023-02-28T17:55:14.274Z,8.40
2023-02-28T17:57:43.372Z,9.37
2023-02-28T18:00:17.093Z,11.90
2023-02-28T18:02:45.328Z,16.13
2023-02-28T18:05:14.123Z,14.27
2023-02-28T18:07:42.819Z,11.30
2023-02-28T18:10:20.143Z,10.03
2023-02-28T18:12:49.269Z,12.03
2023-02-28T18:15:18.116Z,18.20
2023-02-28T18:17:46.192Z,40.37
2023-02-28T18:20:14.425Z,15.93
2023-02-28T18:22:43.470Z,16.40
2023-02-28T18:25:14.791Z,16.37
2023-02-28T18:27:53.932Z,15.63
2023-02-28T18:30:22.301Z,15.83
2023-02-28T18:32:50.455Z,17.03
2023-02-28T18:35:34.537Z,20.40
2023-02-28T18:38:07.638Z,27.23
2023-02-28T18:40:38.092Z,22.20
2023-02-28T18:43:07.235Z,32.00
2023-02-28T18:45:38.524Z,43.17
2023-02-28T18:48:07.580Z,49.63
2023-02-28T18:50:39.049Z,31.20
2023-02-28T18:53:07.217Z,30.33
2023-02-28T18:55:36.656Z,25.03
2023-02-28T18:58:04.799Z,32.20
2023-02-28T19:00:33.341Z,32.10
2023-02-28T19:03:01.515Z,35.13
2023-02-28T19:05:33.044Z,32.37
2023-02-28T19:08:01.357Z,34.60
2023-02-28T19:10:29.958Z,41.63
2023-02-28T19:12:59.538Z,41.83
2023-02-28T19:15:27.610Z,37.80
2023-02-28T19:17:56.017Z,35.83
2023-02-28T19:20:24.325Z,36.20
2023-02-28T19:22:52.596Z,36.57
2023-02-28T19:25:20.992Z,37.43
2023-02-28T19:27:49.152Z,37.23
2023-02-28T19:30:19.060Z,35.00
2023-02-28T19:32:47.814Z,34.87
2023-02-28T19:35:16.280Z,33.53
2023-02-28T19:37:44.433Z,29.53
2023-02-28T19:40:14.631Z,30.00
2023-02-28T19:42:42.770Z,32.07
2023-02-28T19:45:14.715Z,32.40
2023-02-28T19:47:44.966Z,30.87
2023-02-28T19:50:13.402Z,29.07
2023-02-28T19:55:11.053Z,29.07
2023-02-28T19:57:39.179Z,29.90
2023-02-28T20:00:09.181Z,29.70
2023-02-28T20:02:38.115Z,28.20
2023-02-28T20:05:08.892Z,30.60
2023-02-28T20:07:37.297Z,29.20
2023-02-28T20:10:05.969Z,33.33
2023-02-28T20:12:34.147Z,34.00
2023-02-28T20:15:02.307Z,31.20
2023-02-28T20:17:31.113Z,29.97
2023-02-28T20:19:59.207Z,29.80
2023-02-28T20:22:28.990Z,29.57
2023-02-28T20:24:57.068Z,31.17
2023-02-28T20:27:25.828Z,33.33
2023-02-28T20:29:54.224Z,34.73
2023-02-28T20:32:22.756Z,31.43
2023-02-28T20:34:50.824Z,34.40
2023-02-28T20:37:18.954Z,34.30
2023-02-28T20:39:49.683Z,28.47
2023-02-28T20:42:18.042Z,27.93
2023-02-28T20:44:46.310Z,31.00
2023-02-28T20:47:14.359Z,29.67
2023-02-28T20:49:42.477Z,30.03
2023-02-28T20:52:10.587Z,29.93
2023-02-28T20:54:38.709Z,29.33
2023-02-28T20:57:08.207Z,35.53
2023-02-28T20:59:36.553Z,33.83
2023-02-28T21:02:04.597Z,44.57
2023-02-28T21:04:32.758Z,32.70
2023-02-28T21:07:00.881Z,39.07
2023-02-28T21:09:29.167Z,34.43
2023-02-28T21:11:57.227Z,35.23
2023-02-28T21:14:27.433Z,36.67
2023-02-28T21:16:55.564Z,39.00
2023-02-28T21:19:23.588Z,40.13
2023-02-28T21:21:51.663Z,43.20
2023-02-28T21:24:20.982Z,44.93
2023-02-28T21:26:49.730Z,42.67
2023-02-28T21:29:17.864Z,44.10
2023-02-28T21:31:47.427Z,50.53
2023-02-28T21:34:15.530Z,46.00
2023-02-28T21:36:47.422Z,44.53
2023-02-28T21:39:18.035Z,103.30
2023-02-28T21:41:46.396Z,48.50
2023-02-28T21:44:18.306Z,42.53
2023-02-28T21:46:49.720Z,43.87
2023-02-28T21:49:18.385Z,41.63
2023-02-28T21:51:46.590Z,41.40
2023-02-28T21:54:15.416Z,45.63
2023-02-28T21:56:43.567Z,45.43
2023-02-28T21:59:12.067Z,50.43
2023-02-28T22:01:43.576Z,45.30
2023-02-28T22:04:20.978Z,47.40
2023-02-28T22:06:50.608Z,45.47
2023-02-28T22:09:19.053Z,42.83
2023-02-28T22:11:47.569Z,43.40
2023-02-28T22:14:15.693Z,44.77
2023-02-28T22:16:51.780Z,44.40
2023-02-28T22:19:23.537Z,44.03
2023-02-28T22:21:51.770Z,44.00
2023-02-28T22:24:23.330Z,42.50
2023-02-28T22:26:51.619Z,41.93
2023-02-28T22:29:20.616Z,43.07
2023-02-28T22:31:49.180Z,39.50
2023-02-28T22:34:17.349Z,43.23
2023-02-28T22:36:46.954Z,41.97
2023-02-28T22:39:15.295Z,44.30
2023-02-28T22:41:43.461Z,42.63
2023-02-28T22:44:12.475Z,57.40
2023-02-28T22:46:40.676Z,64.23
2023-02-28T22:49:08.884Z,53.13
2023-02-28T22:51:37.280Z,49.73
2023-02-28T22:54:07.123Z,45.37
2023-02-28T22:56:35.280Z,46.57
2023-02-28T22:59:04.172Z,43.53
2023-02-28T23:01:34.509Z,42.53
2023-02-28T23:04:02.940Z,39.97
2023-02-28T23:06:33.699Z,43.77
2023-02-28T23:09:04.632Z,43.30
2023-02-28T23:11:36.602Z,40.77
2023-02-28T23:14:05.289Z,42.53
2023-02-28T23:16:38.964Z,44.00
2023-02-28T23:19:09.689Z,41.07
2023-02-28T23:21:38.540Z,39.23
2023-02-28T23:24:10.763Z,46.80
2023-02-28T23:26:41.677Z,44.83
2023-02-28T23:29:09.790Z,41.80
2023-02-28T23:31:37.830Z,38.73
2023-02-28T23:34:06.007Z,43.83
2023-02-28T23:36:34.458Z,41.70
2023-02-28T23:39:02.633Z,42.13
2023-02-28T23:41:31.984Z,40.47
2023-02-28T23:44:01.487Z,40.23
2023-02-28T23:46:29.811Z,40.00
2023-02-28T23:48:59.407Z,39.70
2023-02-28T23:51:27.475Z,39.73
2023-02-28T23:53:55.686Z,36.87
2023-02-28T23:56:25.739Z,39.73
2023-02-28T23:58:55.828Z,37.30
